createdAt,value
2017-08-12T00:00:33.380Z,2.1
2017-08-12T00:01:35.807Z,2.1
2017-08-12T00:02:38.990Z,2.1
2017-08-12T00:03:41.409Z,2.1
2017-08-12T00:04:44.178Z,2.1
2017-08-12T00:05:46.936Z,2.1
2017-08-12T00:06:50.033Z,2.1
2017-08-12T00:07:52.458Z,2.1
2017-08-12T00:08:54.870Z,2.1
2017-08-12T00:09:57.335Z,2.1
2017-08-12T00:10:59.778Z,2.1
2017-08-12T00:12:02.887Z,2
2017-08-12T00:13:05.664Z,2.1
2017-08-12T00:14:08.525Z,2.1
2017-08-12T00:15:11.278Z,2.1
2017-08-12T00:16:13.703Z,2.1
2017-08-12T00:17:16.479Z,2.1
2017-08-12T00:18:18.907Z,2.1
2017-08-12T00:19:21.693Z,2.1
2017-08-12T00:20:24.105Z,2.1
2017-08-12T00:21:26.514Z,2.1
2017-08-12T00:22:28.931Z,2.1
2017-08-12T00:23:31.356Z,2.1
2017-08-12T00:24:34.928Z,2.1
2017-08-12T00:25:37.353Z,2.1
2017-08-12T00:26:39.774Z,2.1
2017-08-12T00:27:42.221Z,2.1
2017-08-12T00:28:44.640Z,2.1
2017-08-12T00:29:47.065Z,2.1
2017-08-12T00:30:49.823Z,2.1
2017-08-12T00:31:52.251Z,2.1
2017-08-12T00:32:54.690Z,2.1
2017-08-12T00:33:57.097Z,2
2017-08-12T00:34:59.983Z,2.1
2017-08-12T00:36:02.744Z,2.1
2017-08-12T00:37:05.152Z,2.1
2017-08-12T00:38:07.912Z,1.9
2017-08-12T00:39:10.340Z,2.1
2017-08-12T00:40:13.111Z,2
2017-08-12T00:41:15.528Z,2.1
2017-08-12T00:42:18.680Z,2
2017-08-12T00:43:21.100Z,2.1
2017-08-12T00:44:23.517Z,2.1
2017-08-12T00:45:25.942Z,2.1
2017-08-12T00:46:28.345Z,2.1
2017-08-12T00:47:31.112Z,1.9
2017-08-12T00:48:33.531Z,2
2017-08-12T00:49:36.993Z,2
2017-08-12T00:50:39.417Z,2
2017-08-12T00:51:42.166Z,2.1
2017-08-12T00:52:45.075Z,2.1
2017-08-12T00:53:47.831Z,2
2017-08-12T00:54:50.951Z,2
2017-08-12T00:55:53.367Z,2.1
2017-08-12T00:56:56.499Z,2.1
2017-08-12T00:57:58.915Z,2.1
2017-08-12T00:59:01.673Z,2.1
2017-08-12T01:00:04.435Z,2.1
2017-08-12T01:01:07.193Z,2.1
2017-08-12T01:02:09.606Z,2.1
2017-08-12T01:03:12.380Z,2.1
2017-08-12T01:04:15.589Z,2.1
2017-08-12T01:05:17.995Z,1.8
2017-08-12T01:06:20.432Z,2.1
2017-08-12T01:07:22.854Z,2.1
2017-08-12T01:08:25.945Z,2.1
2017-08-12T01:09:28.356Z,2
2017-08-12T01:10:30.771Z,1.8
2017-08-12T01:11:33.907Z,2
2017-08-12T01:12:36.692Z,2.1
2017-08-12T01:13:40.109Z,2.1
2017-08-12T01:14:42.863Z,2
2017-08-12T01:15:45.619Z,2.1
2017-08-12T01:16:48.370Z,2.1
2017-08-12T01:17:51.465Z,2.1
2017-08-12T01:18:54.171Z,2.1
2017-08-12T01:19:56.930Z,2.1
2017-08-12T01:20:59.685Z,2.1
2017-08-12T01:22:02.105Z,2.1
2017-08-12T01:23:04.928Z,2.1
2017-08-12T01:24:07.668Z,2.1
2017-08-12T01:25:10.089Z,2.1
2017-08-12T01:26:12.977Z,2.1
2017-08-12T01:27:15.395Z,2.1
2017-08-12T01:28:17.817Z,2.1
2017-08-12T01:29:20.234Z,2.1
2017-08-12T01:30:22.991Z,2.1
2017-08-12T01:31:25.417Z,2.1
2017-08-12T01:32:27.845Z,2
2017-08-12T01:33:31.094Z,2.1
2017-08-12T01:34:33.851Z,2.1
2017-08-12T01:35:36.613Z,1.9
2017-08-12T01:36:39.035Z,2.1
2017-08-12T01:37:41.472Z,2.1
2017-08-12T01:38:44.232Z,2.2
2017-08-12T01:39:46.659Z,2
2017-08-12T01:40:49.263Z,2.1
2017-08-12T01:41:51.685Z,2.1
2017-08-12T01:42:54.441Z,2.1
2017-08-12T01:43:57.180Z,2.1
2017-08-12T01:44:59.591Z,2
2017-08-12T01:46:02.360Z,2.1
2017-08-12T01:47:04.788Z,2.1
2017-08-12T01:48:07.532Z,2.1
2017-08-12T01:49:09.949Z,2.1
2017-08-12T01:50:12.384Z,2.1
2017-08-12T01:51:14.956Z,2.1
2017-08-12T01:52:17.384Z,2.1
2017-08-12T01:53:20.476Z,2
2017-08-12T01:54:22.890Z,2.1
2017-08-12T01:55:25.313Z,2.1
2017-08-12T01:56:27.733Z,2
2017-08-12T01:57:30.148Z,2
2017-08-12T01:58:32.911Z,2
2017-08-12T01:59:35.363Z,2
2017-08-12T02:00:38.457Z,2
2017-08-12T02:01:41.618Z,2.1
2017-08-12T02:02:44.038Z,2.1
2017-08-12T02:03:46.456Z,2.1
2017-08-12T02:04:48.875Z,1.9
2017-08-12T02:05:51.297Z,1.8
2017-08-12T02:06:53.707Z,2.1
2017-08-12T02:07:56.135Z,2
2017-08-12T02:08:58.988Z,2
2017-08-12T02:10:01.414Z,2
2017-08-12T02:11:04.501Z,2
2017-08-12T02:12:06.913Z,2
2017-08-12T02:13:09.707Z,2
2017-08-12T02:14:12.791Z,2
2017-08-12T02:15:15.574Z,2.1
2017-08-12T02:16:18.293Z,2.1
2017-08-12T02:17:20.706Z,2
2017-08-12T02:18:23.817Z,1.9
2017-08-12T02:19:26.573Z,2
2017-08-12T02:20:28.990Z,2
2017-08-12T02:21:31.406Z,2
2017-08-12T02:22:34.160Z,2
2017-08-12T02:23:37.223Z,2
2017-08-12T02:24:39.639Z,1.9
2017-08-12T02:25:42.065Z,2
2017-08-12T02:26:44.477Z,2
2017-08-12T02:27:46.896Z,2
2017-08-12T02:28:49.667Z,2
2017-08-12T02:29:52.418Z,2
2017-08-12T02:30:55.597Z,2
2017-08-12T02:31:58.032Z,1.9
2017-08-12T02:33:00.452Z,1.9
2017-08-12T02:34:03.519Z,2
2017-08-12T02:35:06.961Z,2
2017-08-12T02:36:09.364Z,1.9
2017-08-12T02:37:12.121Z,2
2017-08-12T02:38:15.078Z,2
2017-08-12T02:39:17.832Z,1.9
2017-08-12T02:40:20.594Z,2
2017-08-12T02:41:23.020Z,2
2017-08-12T02:42:25.432Z,2
2017-08-12T02:43:28.540Z,2
2017-08-12T02:44:31.651Z,1.9
2017-08-12T02:45:34.395Z,2
2017-08-12T02:46:36.817Z,2
2017-08-12T02:47:39.223Z,1.9
2017-08-12T02:48:42.005Z,2
2017-08-12T02:49:44.775Z,2
2017-08-12T02:50:47.532Z,2
2017-08-12T02:51:49.950Z,1.8
2017-08-12T02:52:52.953Z,1.9
2017-08-12T02:53:55.366Z,1.9
2017-08-12T02:54:58.134Z,1.9
2017-08-12T02:56:00.880Z,2
2017-08-12T02:57:03.301Z,1.9
2017-08-12T02:58:05.720Z,2
2017-08-12T02:59:08.137Z,1.9
2017-08-12T03:00:11.184Z,1.9
2017-08-12T03:01:13.595Z,1.8
2017-08-12T03:02:16.024Z,2
2017-08-12T03:03:19.110Z,2
2017-08-12T03:04:21.530Z,1.8
2017-08-12T03:05:23.947Z,2
2017-08-12T03:06:26.357Z,1.9
2017-08-12T03:07:28.768Z,2
2017-08-12T03:08:31.202Z,1.9
2017-08-12T03:09:33.610Z,1.8
2017-08-12T03:10:36.827Z,1.9
2017-08-12T03:11:39.275Z,1.9
2017-08-12T03:12:41.688Z,2
2017-08-12T03:13:44.101Z,1.9
2017-08-12T03:14:46.523Z,1.9
2017-08-12T03:15:48.934Z,1.8
2017-08-12T03:16:51.693Z,1.9
2017-08-12T03:17:54.470Z,1.8
2017-08-12T03:18:56.880Z,1.9
2017-08-12T03:19:59.317Z,1.9
2017-08-12T03:21:02.340Z,1.8
2017-08-12T03:22:05.094Z,1.9
2017-08-12T03:23:07.857Z,1.9
2017-08-12T03:24:10.643Z,1.8
2017-08-12T03:25:13.049Z,1.9
2017-08-12T03:26:15.503Z,1.9
2017-08-12T03:27:18.265Z,1.9
2017-08-12T03:28:21.086Z,1.9
2017-08-12T03:29:23.509Z,1.8
2017-08-12T03:30:26.281Z,1.9
2017-08-12T03:31:29.040Z,1.8
2017-08-12T03:32:32.816Z,1.8
2017-08-12T03:33:35.244Z,1.9
2017-08-12T03:34:38.007Z,1.9
2017-08-12T03:35:40.748Z,1.9
2017-08-12T03:36:43.164Z,1.8
2017-08-12T03:37:45.584Z,2
2017-08-12T03:38:48.002Z,1.9
2017-08-12T03:39:50.416Z,1.9
2017-08-12T03:40:52.826Z,1.9
2017-08-12T03:41:55.246Z,1.9
2017-08-12T03:42:57.697Z,1.8
2017-08-12T03:44:00.108Z,1.8
2017-08-12T03:45:02.521Z,1.8
2017-08-12T03:46:05.961Z,1.9
2017-08-12T03:47:08.372Z,1.8
2017-08-12T03:48:10.796Z,1.9
2017-08-12T03:49:13.550Z,1.8
2017-08-12T03:50:15.967Z,1.9
2017-08-12T03:51:19.403Z,1.9
2017-08-12T03:52:21.819Z,1.8
2017-08-12T03:53:24.228Z,1.8
2017-08-12T03:54:26.993Z,1.8
2017-08-12T03:55:29.408Z,1.9
2017-08-12T03:56:31.829Z,1.7
2017-08-12T03:57:34.246Z,1.8
2017-08-12T03:58:36.664Z,1.7
2017-08-12T03:59:39.122Z,1.8
2017-08-12T04:00:41.538Z,1.9
2017-08-12T04:01:44.621Z,1.9
2017-08-12T04:02:47.041Z,1.9
2017-08-12T04:03:49.807Z,1.9
2017-08-12T04:04:52.219Z,1.8
2017-08-12T04:05:55.310Z,1.8
2017-08-12T04:06:58.079Z,1.9
2017-08-12T04:08:00.484Z,1.7
2017-08-12T04:09:03.608Z,1.8
2017-08-12T04:10:06.392Z,1.9
2017-08-12T04:11:08.809Z,1.9
2017-08-12T04:12:11.224Z,1.7
2017-08-12T04:13:13.974Z,1.8
2017-08-12T04:14:16.406Z,1.9
2017-08-12T04:15:18.823Z,1.7
2017-08-12T04:16:21.576Z,1.9
2017-08-12T04:17:24.366Z,1.9
2017-08-12T04:18:26.774Z,1.9
2017-08-12T04:19:29.196Z,1.7
2017-08-12T04:20:31.602Z,1.9
2017-08-12T04:21:34.367Z,1.8
2017-08-12T04:22:36.793Z,1.9
2017-08-12T04:23:39.216Z,1.8
2017-08-12T04:24:41.632Z,1.8
2017-08-12T04:25:44.381Z,1.7
2017-08-12T04:26:46.795Z,1.7
2017-08-12T04:27:49.551Z,1.9
2017-08-12T04:28:51.965Z,1.6
2017-08-12T04:29:54.749Z,1.8
2017-08-12T04:30:57.176Z,1.9
2017-08-12T04:31:59.939Z,1.6
2017-08-12T04:33:02.688Z,1.8
2017-08-12T04:34:05.110Z,1.8
2017-08-12T04:35:07.537Z,1.8
2017-08-12T04:36:09.950Z,1.8
2017-08-12T04:37:12.371Z,1.9
2017-08-12T04:38:14.788Z,1.8
2017-08-12T04:39:17.193Z,1.8
2017-08-12T04:40:19.622Z,1.9
2017-08-12T04:41:22.377Z,1.8
2017-08-12T04:42:25.122Z,1.6
2017-08-12T04:43:27.543Z,1.8
2017-08-12T04:44:29.960Z,1.6
2017-08-12T04:45:32.387Z,1.7
2017-08-12T04:46:35.829Z,1.9
2017-08-12T04:47:38.594Z,1.8
2017-08-12T04:48:41.349Z,1.9
2017-08-12T04:49:44.103Z,1.9
2017-08-12T04:50:46.864Z,1.8
2017-08-12T04:51:49.262Z,1.8
2017-08-12T04:52:51.685Z,1.6
2017-08-12T04:53:54.440Z,1.9
2017-08-12T04:54:57.199Z,1.7
2017-08-12T04:55:59.607Z,1.8
2017-08-12T04:57:02.392Z,1.8
2017-08-12T04:58:04.800Z,1.9
2017-08-12T04:59:07.568Z,1.7
2017-08-12T05:00:10.326Z,1.8
2017-08-12T05:01:12.734Z,1.9
2017-08-12T05:02:15.493Z,1.9
2017-08-12T05:03:17.907Z,1.9
2017-08-12T05:04:20.652Z,1.8
2017-08-12T05:05:23.411Z,1.9
2017-08-12T05:06:25.827Z,1.8
2017-08-12T05:07:28.240Z,1.8
2017-08-12T05:08:30.659Z,1.7
2017-08-12T05:09:33.074Z,1.8
2017-08-12T05:10:36.174Z,1.8
2017-08-12T05:11:38.593Z,1.9
2017-08-12T05:12:41.351Z,1.7
2017-08-12T05:13:44.788Z,1.7
2017-08-12T05:14:47.554Z,1.9
2017-08-12T05:15:49.969Z,1.9
2017-08-12T05:16:52.384Z,1.8
2017-08-12T05:17:55.146Z,1.9
2017-08-12T05:18:57.559Z,1.8
2017-08-12T05:19:59.971Z,1.8
2017-08-12T05:21:02.722Z,1.8
2017-08-12T05:22:05.140Z,1.9
2017-08-12T05:23:07.913Z,1.8
2017-08-12T05:24:10.332Z,1.8
2017-08-12T05:25:12.740Z,1.9
2017-08-12T05:26:15.150Z,1.8
2017-08-12T05:27:17.570Z,1.9
2017-08-12T05:28:19.978Z,1.9
2017-08-12T05:29:22.396Z,1.9
2017-08-12T05:30:24.861Z,1.9
2017-08-12T05:31:27.278Z,1.9
2017-08-12T05:32:30.031Z,1.8
2017-08-12T05:33:32.455Z,1.9
2017-08-12T05:34:35.209Z,1.8
2017-08-12T05:35:38.311Z,1.9
2017-08-12T05:36:40.729Z,1.9
2017-08-12T05:37:43.136Z,1.8
2017-08-12T05:38:45.561Z,1.8
2017-08-12T05:39:48.665Z,1.8
2017-08-12T05:40:51.075Z,1.8
2017-08-12T05:41:53.487Z,1.9
2017-08-12T05:42:56.249Z,1.9
2017-08-12T05:43:58.662Z,1.9
2017-08-12T05:45:01.758Z,1.9
2017-08-12T05:46:04.855Z,1.9
2017-08-12T05:47:07.611Z,1.9
2017-08-12T05:48:10.373Z,1.8
2017-08-12T05:49:13.136Z,2
2017-08-12T05:50:15.901Z,1.9
2017-08-12T05:51:18.312Z,1.8
2017-08-12T05:52:21.077Z,1.9
2017-08-12T05:53:23.495Z,1.8
2017-08-12T05:54:26.254Z,1.9
2017-08-12T05:55:29.005Z,1.9
2017-08-12T05:56:31.442Z,1.8
2017-08-12T05:57:33.853Z,2
2017-08-12T05:58:36.281Z,2
2017-08-12T05:59:38.697Z,2
2017-08-12T06:00:41.787Z,1.9
2017-08-12T06:01:44.210Z,1.8
2017-08-12T06:02:46.627Z,1.9
2017-08-12T06:03:49.046Z,2
2017-08-12T06:04:51.804Z,2
2017-08-12T06:05:54.556Z,2
2017-08-12T06:06:56.969Z,2
2017-08-12T06:07:59.398Z,2
2017-08-12T06:09:01.820Z,2
2017-08-12T06:10:05.273Z,1.9
2017-08-12T06:11:07.687Z,1.9
2017-08-12T06:12:42.279Z,2
2017-08-12T06:13:44.753Z,1.9
2017-08-12T06:14:47.933Z,1.9
2017-08-12T06:15:50.431Z,2.1
2017-08-12T06:16:52.907Z,2
2017-08-12T06:17:55.730Z,2
2017-08-12T06:18:58.559Z,1.9
2017-08-12T06:20:01.063Z,1.9
2017-08-12T06:21:04.234Z,2.1
2017-08-12T06:22:07.084Z,2.1
2017-08-12T06:23:09.913Z,2.1
2017-08-12T06:24:12.773Z,2
2017-08-12T06:25:15.966Z,2.1
2017-08-12T06:26:18.463Z,1.9
2017-08-12T06:27:20.959Z,1.9
2017-08-12T06:28:23.449Z,1.9
2017-08-12T06:29:25.936Z,2.1
2017-08-12T06:30:28.454Z,2
2017-08-12T06:31:30.942Z,2
2017-08-12T06:32:33.429Z,2
2017-08-12T06:33:35.921Z,2
2017-08-12T06:34:39.076Z,2
2017-08-12T06:35:41.585Z,2
2017-08-12T06:36:44.435Z,2
2017-08-12T06:37:46.917Z,2
2017-08-12T06:38:49.739Z,2
2017-08-12T06:39:52.567Z,2
2017-08-12T06:40:55.063Z,2
2017-08-12T06:41:57.548Z,2
2017-08-12T06:43:00.371Z,2
2017-08-12T06:44:02.861Z,2
2017-08-12T06:45:06.392Z,2
2017-08-12T06:46:09.248Z,2
2017-08-12T06:47:12.072Z,2
2017-08-12T06:48:14.567Z,2
2017-08-12T06:49:17.399Z,2
2017-08-12T06:50:20.237Z,2
2017-08-12T06:51:22.721Z,2
2017-08-12T06:52:25.211Z,2
2017-08-12T06:53:27.690Z,2.1
2017-08-12T06:54:30.513Z,2
2017-08-12T06:55:33.053Z,1.9
2017-08-12T06:56:35.523Z,2
2017-08-12T06:57:38.353Z,2.1
2017-08-12T06:58:40.854Z,2
2017-08-12T06:59:43.696Z,2
2017-08-12T07:00:46.184Z,2
2017-08-12T07:01:48.690Z,2.1
2017-08-12T07:02:51.171Z,2
2017-08-12T07:03:54.002Z,2.1
2017-08-12T07:04:57.182Z,2.1
2017-08-12T07:05:59.683Z,2.1
2017-08-12T07:07:02.847Z,2
2017-08-12T07:08:05.346Z,2
2017-08-12T07:09:08.165Z,2.1
2017-08-12T07:10:10.665Z,1.9
2017-08-12T07:11:13.149Z,2
2017-08-12T07:12:15.654Z,2.1
2017-08-12T07:13:18.477Z,2.1
2017-08-12T07:14:22.349Z,1.9
2017-08-12T07:15:24.830Z,2.1
2017-08-12T07:16:27.324Z,1.9
2017-08-12T07:17:29.824Z,2.2
2017-08-12T07:18:32.305Z,2
2017-08-12T07:19:34.809Z,2
2017-08-12T07:20:37.297Z,2
2017-08-12T07:21:39.775Z,2
2017-08-12T07:22:42.285Z,2.1
2017-08-12T07:23:45.108Z,2.1
2017-08-12T07:24:47.928Z,1.9
2017-08-12T07:25:50.410Z,2.1
2017-08-12T07:26:52.905Z,2.1
2017-08-12T07:27:55.396Z,2.1
2017-08-12T07:28:58.233Z,2
2017-08-12T07:30:00.740Z,2.1
2017-08-12T07:31:03.574Z,2.1
2017-08-12T07:32:06.071Z,2.2
2017-08-12T07:33:08.565Z,2
2017-08-12T07:34:11.396Z,1.9
2017-08-12T07:35:13.892Z,2
2017-08-12T07:36:17.061Z,2.2
2017-08-12T07:37:19.535Z,2
2017-08-12T07:38:22.022Z,2.1
2017-08-12T07:39:24.868Z,1.9
2017-08-12T07:40:27.688Z,2
2017-08-12T07:41:30.185Z,2.1
2017-08-12T07:42:32.664Z,2
2017-08-12T07:43:35.526Z,2.1
2017-08-12T07:44:38.356Z,2.2
2017-08-12T07:45:40.875Z,2.1
2017-08-12T07:46:43.349Z,2.2
2017-08-12T07:47:45.853Z,2.1
2017-08-12T07:48:48.358Z,2.2
2017-08-12T07:49:50.832Z,2.2
2017-08-12T07:50:53.323Z,2.1
2017-08-12T07:51:55.816Z,2.1
2017-08-12T07:52:58.310Z,2.2
2017-08-12T07:54:01.139Z,2.2
2017-08-12T07:55:03.962Z,2
2017-08-12T07:56:06.441Z,2.2
2017-08-12T07:57:08.937Z,2.2
2017-08-12T07:58:11.424Z,2.1
2017-08-12T07:59:14.264Z,2
2017-08-12T08:00:16.747Z,2.2
2017-08-12T08:01:19.586Z,2.1
2017-08-12T08:02:22.062Z,2.2
2017-08-12T08:03:24.564Z,2.2
2017-08-12T08:04:27.047Z,2.1
2017-08-12T08:05:29.529Z,2.2
2017-08-12T08:06:32.348Z,2
2017-08-12T08:07:34.852Z,2
2017-08-12T08:08:38.384Z,2.2
2017-08-12T08:09:40.883Z,2.2
2017-08-12T08:10:44.043Z,2.1
2017-08-12T08:11:46.532Z,2.1
2017-08-12T08:12:49.376Z,2.2
2017-08-12T08:13:51.866Z,2.2
2017-08-12T08:14:54.702Z,1.9
2017-08-12T08:15:57.539Z,2.1
2017-08-12T08:17:00.370Z,2.1
2017-08-12T08:18:03.217Z,2.2
2017-08-12T08:19:05.705Z,2.2
2017-08-12T08:20:08.184Z,2.1
2017-08-12T08:21:10.677Z,2.1
2017-08-12T08:22:13.162Z,2.1
2017-08-12T08:23:15.652Z,2.1
2017-08-12T08:24:18.130Z,2
2017-08-12T08:25:20.951Z,2.2
2017-08-12T08:26:23.442Z,2
2017-08-12T08:27:25.943Z,2.2
2017-08-12T08:28:28.430Z,2.2
2017-08-12T08:29:30.911Z,2.2
2017-08-12T08:30:33.403Z,2
2017-08-12T08:31:35.897Z,2.1
2017-08-12T08:32:38.392Z,2.1
2017-08-12T08:33:40.874Z,2.2
2017-08-12T08:34:43.373Z,2.1
2017-08-12T08:35:46.188Z,2.1
2017-08-12T08:36:49.014Z,2
2017-08-12T08:37:51.510Z,2.2
2017-08-12T08:38:54.010Z,2.2
2017-08-12T08:39:57.201Z,2.1
2017-08-12T08:40:59.752Z,2.2
2017-08-12T08:42:02.301Z,2.2
2017-08-12T08:43:05.163Z,2.2
2017-08-12T08:44:08.786Z,2.2
2017-08-12T08:45:11.704Z,2.2
2017-08-12T08:46:14.242Z,2.2
2017-08-12T08:47:17.124Z,2.3
2017-08-12T08:48:19.665Z,2.3
2017-08-12T08:49:22.531Z,2.3
2017-08-12T08:50:25.043Z,2.3
2017-08-12T08:51:27.546Z,2.3
2017-08-12T08:52:30.088Z,2.3
2017-08-12T08:53:32.958Z,2.3
2017-08-12T08:54:35.485Z,2.1
2017-08-12T08:55:38.025Z,2.3
2017-08-12T08:56:40.541Z,2.3
2017-08-12T08:57:43.037Z,2.3
2017-08-12T08:58:45.557Z,2.3
2017-08-12T08:59:48.438Z,2.3
2017-08-12T09:00:51.340Z,2.2
2017-08-12T09:01:53.843Z,2.4
2017-08-12T09:02:56.778Z,2.4
2017-08-12T09:03:59.346Z,2.3
2017-08-12T09:05:01.884Z,2.4
2017-08-12T09:06:04.776Z,2.4
2017-08-12T09:07:07.348Z,2.4
2017-08-12T09:08:10.199Z,2.4
2017-08-12T09:09:12.727Z,2.4
2017-08-12T09:10:15.993Z,2.4
2017-08-12T09:11:18.559Z,2.4
2017-08-12T09:12:21.065Z,2.4
2017-08-12T09:13:23.562Z,2.4
2017-08-12T09:14:26.275Z,2.4
2017-08-12T09:15:29.110Z,2.4
2017-08-12T09:16:31.601Z,2.5
2017-08-12T09:17:34.127Z,2.4
2017-08-12T09:18:36.622Z,2.4
2017-08-12T09:19:39.141Z,2.5
2017-08-12T09:20:42.316Z,2.5
2017-08-12T09:21:44.860Z,2.5
2017-08-12T09:22:47.352Z,2.5
2017-08-12T09:23:50.536Z,2.5
2017-08-12T09:24:53.357Z,2.5
2017-08-12T09:25:55.852Z,2.5
2017-08-12T09:26:58.708Z,2.6
2017-08-12T09:28:01.204Z,2.6
2017-08-12T09:29:04.030Z,2.5
2017-08-12T09:30:06.916Z,2.6
2017-08-12T09:31:09.418Z,2.5
2017-08-12T09:32:12.255Z,2.6
2017-08-12T09:33:14.756Z,2.5
2017-08-12T09:34:17.258Z,2.5
2017-08-12T09:35:20.088Z,2.5
2017-08-12T09:36:22.940Z,2.4
2017-08-12T09:37:25.446Z,2.6
2017-08-12T09:38:29.457Z,2.6
2017-08-12T09:39:31.957Z,2.6
2017-08-12T09:40:34.461Z,2.6
2017-08-12T09:41:36.968Z,2.5
2017-08-12T09:42:39.475Z,2.6
2017-08-12T09:43:42.310Z,2.6
2017-08-12T09:44:45.000Z,2.6
2017-08-12T09:45:47.852Z,2.6
2017-08-12T09:46:50.685Z,2.6
2017-08-12T09:47:53.530Z,2.6
2017-08-12T09:48:56.038Z,2.6
2017-08-12T09:49:59.225Z,2.6
2017-08-12T09:51:01.738Z,2.5
2017-08-12T09:52:04.569Z,2.5
2017-08-12T09:53:07.391Z,2.6
2017-08-12T09:54:09.909Z,2.6
2017-08-12T09:55:12.413Z,2.6
2017-08-12T09:56:14.924Z,2.6
2017-08-12T09:57:17.434Z,2.6
2017-08-12T09:58:19.922Z,2.6
2017-08-12T09:59:22.428Z,2.5
2017-08-12T10:00:24.919Z,2.6
2017-08-12T10:01:27.427Z,2.6
2017-08-12T10:02:29.934Z,2.6
2017-08-12T10:03:32.439Z,2.6
2017-08-12T10:04:34.947Z,2.6
2017-08-12T10:05:37.784Z,2.6
2017-08-12T10:06:40.273Z,2.6
2017-08-12T10:07:42.784Z,2.6
2017-08-12T10:08:45.614Z,2.5
2017-08-12T10:09:48.455Z,2.6
2017-08-12T10:10:51.299Z,2.6
2017-08-12T10:11:53.787Z,2.6
2017-08-12T10:12:56.287Z,2.5
2017-08-12T10:13:58.773Z,2.6
2017-08-12T10:15:01.280Z,2.5
2017-08-12T10:16:04.468Z,2.7
2017-08-12T10:17:07.285Z,2.6
2017-08-12T10:18:09.795Z,2.7
2017-08-12T10:19:12.312Z,2.7
2017-08-12T10:20:14.804Z,2.8
2017-08-12T10:21:18.008Z,2.8
2017-08-12T10:22:20.851Z,2.8
2017-08-12T10:23:23.359Z,2.8
2017-08-12T10:24:25.881Z,2.9
2017-08-12T10:25:28.424Z,2.9
2017-08-12T10:26:30.895Z,2.9
2017-08-12T10:27:33.408Z,2.9
2017-08-12T10:28:36.239Z,2.9
2017-08-12T10:29:38.781Z,2.9
2017-08-12T10:30:41.276Z,2.9
2017-08-12T10:31:43.798Z,2.8
2017-08-12T10:32:46.657Z,2.9
2017-08-12T10:33:49.138Z,2.9
2017-08-12T10:34:51.645Z,2.8
2017-08-12T10:35:54.143Z,2.9
2017-08-12T10:36:56.651Z,3
2017-08-12T10:37:59.150Z,3
2017-08-12T10:39:01.639Z,3
2017-08-12T10:40:04.492Z,3
2017-08-12T10:41:07.345Z,3
2017-08-12T10:42:10.187Z,3
2017-08-12T10:43:12.699Z,3
2017-08-12T10:44:15.208Z,2.9
2017-08-12T10:45:17.708Z,3
2017-08-12T10:46:20.209Z,2.9
2017-08-12T10:47:23.049Z,3
2017-08-12T10:48:25.878Z,3
2017-08-12T10:49:28.713Z,3
2017-08-12T10:50:31.556Z,3
2017-08-12T10:51:34.046Z,3
2017-08-12T10:52:37.256Z,3
2017-08-12T10:53:40.105Z,3
2017-08-12T10:54:42.940Z,3
2017-08-12T10:55:45.439Z,3
2017-08-12T10:56:48.300Z,3
2017-08-12T10:57:51.138Z,3
2017-08-12T10:58:54.024Z,3
2017-08-12T10:59:56.917Z,3
2017-08-12T11:00:59.403Z,3
2017-08-12T11:02:02.578Z,3
2017-08-12T11:03:05.081Z,3
2017-08-12T11:04:07.909Z,3
2017-08-12T11:05:10.426Z,3
2017-08-12T11:06:13.258Z,3.1
2017-08-12T11:07:15.765Z,3
2017-08-12T11:08:18.287Z,3
2017-08-12T11:09:20.800Z,3
2017-08-12T11:10:23.630Z,3.1
2017-08-12T11:11:26.462Z,3.1
2017-08-12T11:12:29.292Z,3
2017-08-12T11:13:31.782Z,3.1
2017-08-12T11:14:34.277Z,3
2017-08-12T11:15:36.768Z,3.1
2017-08-12T11:16:39.253Z,3.1
2017-08-12T11:17:42.442Z,3.1
2017-08-12T11:18:44.935Z,3
2017-08-12T11:19:47.781Z,3
2017-08-12T11:20:50.276Z,3.1
2017-08-12T11:21:53.468Z,3.1
2017-08-12T11:22:55.961Z,3.1
2017-08-12T11:23:58.470Z,3
2017-08-12T11:25:01.298Z,3.1
2017-08-12T11:26:03.794Z,3
2017-08-12T11:27:06.310Z,3.1
2017-08-12T11:28:09.148Z,3.1
2017-08-12T11:29:11.975Z,3.2
2017-08-12T11:30:14.485Z,3.2
2017-08-12T11:31:16.989Z,3.2
2017-08-12T11:32:19.489Z,3.1
2017-08-12T11:33:22.334Z,3.1
2017-08-12T11:34:24.825Z,3.2
2017-08-12T11:35:27.329Z,3.2
2017-08-12T11:36:29.868Z,3.2
2017-08-12T11:37:32.362Z,3.2
2017-08-12T11:38:35.204Z,3.2
2017-08-12T11:39:37.691Z,3.3
2017-08-12T11:40:40.555Z,3.3
2017-08-12T11:41:43.050Z,3.3
2017-08-12T11:42:45.566Z,3.4
2017-08-12T11:43:48.052Z,3.3
2017-08-12T11:44:50.554Z,3.3
2017-08-12T11:45:53.021Z,3.2
2017-08-12T11:46:55.799Z,3.3
2017-08-12T11:47:58.227Z,3.3
2017-08-12T11:49:00.668Z,3.3
2017-08-12T11:50:03.761Z,3.3
2017-08-12T11:51:06.184Z,3.3
2017-08-12T11:52:08.951Z,3.3
2017-08-12T11:53:11.369Z,3.3
2017-08-12T11:54:14.132Z,3.3
2017-08-12T11:55:16.565Z,3.3
2017-08-12T11:56:19.329Z,3.3
2017-08-12T11:57:21.754Z,3.2
2017-08-12T11:58:24.177Z,3.2
2017-08-12T11:59:26.600Z,3.3
2017-08-12T12:00:29.029Z,3.4
2017-08-12T12:01:31.453Z,3.3
2017-08-12T12:02:33.865Z,3.2
2017-08-12T12:03:36.670Z,3.3
2017-08-12T12:04:39.100Z,3.2
2017-08-12T12:05:41.527Z,3.2
2017-08-12T12:06:43.952Z,3.3
2017-08-12T12:07:46.397Z,3.2
2017-08-12T12:08:49.519Z,3.2
2017-08-12T12:09:51.954Z,3.2
2017-08-12T12:10:54.761Z,3.3
2017-08-12T12:11:57.537Z,3.2
2017-08-12T12:12:59.990Z,3.2
2017-08-12T12:14:03.121Z,3.1
2017-08-12T12:15:05.905Z,3.1
2017-08-12T12:16:08.386Z,3.1
2017-08-12T12:17:10.821Z,3.2
2017-08-12T12:18:13.248Z,3.1
2017-08-12T12:19:16.422Z,3.1
2017-08-12T12:20:18.898Z,3
2017-08-12T12:21:21.347Z,3
2017-08-12T12:22:23.835Z,3
2017-08-12T12:23:26.360Z,3.1
2017-08-12T12:24:28.794Z,3.1
2017-08-12T12:25:31.546Z,3
2017-08-12T12:26:34.336Z,3
2017-08-12T12:28:06.831Z,3
2017-08-12T12:29:09.595Z,3
2017-08-12T12:30:12.068Z,3
2017-08-12T12:31:14.499Z,3
2017-08-12T12:32:16.925Z,3
2017-08-12T12:33:19.354Z,3
2017-08-12T12:34:21.936Z,3
2017-08-12T12:35:24.371Z,3
2017-08-12T12:36:27.501Z,2.9
2017-08-12T12:37:30.248Z,3
2017-08-12T12:38:32.778Z,2.9
2017-08-12T12:39:35.888Z,3
2017-08-12T12:40:38.298Z,2.9
2017-08-12T12:41:41.112Z,2.9
2017-08-12T12:42:43.861Z,2.9
2017-08-12T12:43:46.332Z,2.9
2017-08-12T12:44:49.761Z,2.8
2017-08-12T12:45:52.270Z,2.8
2017-08-12T12:46:54.869Z,2.9
2017-08-12T12:47:57.538Z,2.9
2017-08-12T12:48:59.957Z,2.9
2017-08-12T12:50:02.760Z,2.9
2017-08-12T12:51:05.521Z,2.8
2017-08-12T12:52:08.304Z,2.9
2017-08-12T12:53:10.729Z,2.9
2017-08-12T12:54:13.154Z,2.9
2017-08-12T12:55:16.067Z,2.9
2017-08-12T12:56:18.474Z,2.9
2017-08-12T12:57:21.034Z,2.9
2017-08-12T12:58:23.462Z,2.9
2017-08-12T12:59:26.433Z,2.9
2017-08-12T13:00:29.199Z,2.9
2017-08-12T13:01:31.845Z,2.9
2017-08-12T13:02:34.287Z,2.9
2017-08-12T13:03:37.062Z,3
2017-08-12T13:04:39.494Z,2.9
2017-08-12T13:05:42.258Z,3
2017-08-12T13:06:45.047Z,3
2017-08-12T13:07:47.804Z,3
2017-08-12T13:08:50.219Z,3
2017-08-12T13:09:52.976Z,3
2017-08-12T13:10:55.752Z,3
2017-08-12T13:11:58.718Z,3
2017-08-12T13:13:01.534Z,3
2017-08-12T13:14:04.663Z,3
2017-08-12T13:15:07.930Z,2.9
2017-08-12T13:16:11.318Z,2.9
2017-08-12T13:17:13.922Z,3
2017-08-12T13:18:16.850Z,2.9
2017-08-12T13:19:19.736Z,3
2017-08-12T13:20:22.930Z,2.9
2017-08-12T13:21:25.367Z,2.9
2017-08-12T13:22:28.337Z,2.9
2017-08-12T13:23:31.250Z,2.9
2017-08-12T13:24:33.775Z,2.9
2017-08-12T13:25:37.006Z,2.9
2017-08-12T13:26:40.127Z,2.9
2017-08-12T13:27:42.941Z,2.9
2017-08-12T13:28:45.581Z,2.9
2017-08-12T13:29:48.057Z,2.9
2017-08-12T13:30:50.699Z,2.8
2017-08-12T13:31:54.015Z,2.8
2017-08-12T13:32:56.472Z,2.9
2017-08-12T13:33:59.383Z,2.8
2017-08-12T13:35:02.256Z,2.8
2017-08-12T13:36:05.445Z,2.8
2017-08-12T13:37:08.321Z,2.8
2017-08-12T13:38:10.936Z,2.9
2017-08-12T13:39:13.407Z,2.8
2017-08-12T13:40:15.997Z,2.8
2017-08-12T13:41:18.659Z,2.8
2017-08-12T13:42:21.707Z,2.8
2017-08-12T13:43:24.316Z,2.7
2017-08-12T13:44:27.336Z,2.8
2017-08-12T13:45:29.984Z,2.8
2017-08-12T13:46:32.990Z,2.7
2017-08-12T13:47:35.577Z,2.8
2017-08-12T13:48:38.278Z,2.8
2017-08-12T13:49:40.983Z,2.7
2017-08-12T13:50:43.860Z,2.8
2017-08-12T13:51:46.658Z,2.8
2017-08-12T13:52:49.651Z,2.8
2017-08-12T13:53:52.824Z,2.8
2017-08-12T13:54:55.331Z,2.8
2017-08-12T13:55:58.263Z,2.7
2017-08-12T13:57:00.888Z,2.8
2017-08-12T13:58:03.801Z,2.7
2017-08-12T13:59:06.511Z,2.7
2017-08-12T14:00:09.158Z,2.7
2017-08-12T14:01:11.959Z,2.8
2017-08-12T14:02:15.263Z,2.8
2017-08-12T14:03:18.341Z,2.7
2017-08-12T14:04:20.851Z,2.7
2017-08-12T14:05:23.371Z,2.8
2017-08-12T14:06:27.892Z,2.8
2017-08-12T14:07:32.167Z,2.7
2017-08-12T14:08:35.257Z,2.6
2017-08-12T14:09:37.706Z,2.6
2017-08-12T14:10:40.119Z,2.7
2017-08-12T14:11:42.879Z,2.8
2017-08-12T14:12:45.292Z,2.6
2017-08-12T14:13:48.041Z,2.7
2017-08-12T14:14:50.461Z,2.7
2017-08-12T14:15:53.223Z,2.7
2017-08-12T14:16:55.977Z,2.7
2017-08-12T14:17:58.737Z,2.7
2017-08-12T14:19:01.830Z,2.7
2017-08-12T14:20:04.590Z,2.7
2017-08-12T14:21:07.392Z,2.7
2017-08-12T14:22:09.812Z,2.7
2017-08-12T14:23:12.605Z,2.7
2017-08-12T14:24:15.102Z,2.7
2017-08-12T14:25:17.593Z,2.7
2017-08-12T14:26:20.042Z,2.7
2017-08-12T14:27:22.502Z,2.7
2017-08-12T14:28:25.004Z,2.7
2017-08-12T14:29:28.145Z,2.7
2017-08-12T14:30:30.980Z,2.7
2017-08-12T14:31:33.476Z,2.7
2017-08-12T14:32:35.976Z,2.7
2017-08-12T14:33:38.793Z,2.7
2017-08-12T14:34:41.266Z,2.7
2017-08-12T14:35:43.719Z,2.6
2017-08-12T14:36:46.214Z,2.6